createdAt,value
2022-08-28T00:01:38.743Z,18.00
2022-08-28T00:04:07.956Z,18.20
2022-08-28T00:06:35.875Z,18.10
2022-08-28T00:09:03.822Z,17.80
2022-08-28T00:11:31.760Z,17.80
2022-08-28T00:14:01.396Z,17.90
2022-08-28T00:16:30.504Z,17.90
2022-08-28T00:18:58.436Z,18.00
2022-08-28T00:21:27.669Z,18.40
2022-08-28T00:23:55.503Z,18.50
2022-08-28T00:26:37.328Z,18.20
2022-08-28T00:33:06.868Z,18.30
2022-08-28T00:39:23.676Z,18.10
2022-08-28T00:41:56.684Z,18.00
2022-08-28T00:44:26.597Z,17.90
2022-08-28T00:46:56.149Z,17.90
2022-08-28T00:49:25.471Z,17.90
2022-08-28T00:52:15.356Z,17.80
2022-08-28T00:54:58.833Z,17.80
2022-08-28T00:57:29.361Z,17.80
2022-08-28T00:59:57.458Z,17.90
2022-08-28T01:02:26.679Z,18.00
2022-08-28T01:04:54.956Z,18.00
2022-08-28T01:07:23.217Z,17.90
2022-08-28T01:09:54.477Z,18.10
2022-08-28T01:12:24.127Z,17.90
2022-08-28T01:14:52.621Z,17.90
2022-08-28T01:17:21.038Z,17.90
2022-08-28T01:19:55.679Z,17.80
2022-08-28T01:22:25.904Z,17.80
2022-08-28T01:24:55.587Z,17.90
2022-08-28T01:27:24.987Z,17.80
2022-08-28T01:29:53.282Z,17.90
2022-08-28T01:32:34.449Z,17.80
2022-08-28T01:35:02.702Z,17.80
2022-08-28T01:37:32.051Z,17.90
2022-08-28T01:40:02.417Z,17.80
2022-08-28T01:42:30.480Z,17.80
2022-08-28T01:44:58.513Z,17.80
2022-08-28T01:47:26.772Z,17.70
2022-08-28T01:49:54.853Z,17.70
2022-08-28T01:52:26.285Z,17.70
2022-08-28T01:54:54.668Z,17.60
2022-08-28T01:57:25.303Z,17.70
2022-08-28T01:59:54.549Z,17.70
2022-08-28T02:02:22.660Z,17.70
2022-08-28T02:04:50.654Z,17.70
2022-08-28T02:07:18.813Z,17.70
2022-08-28T02:09:46.783Z,17.60
2022-08-28T02:12:14.640Z,17.70
2022-08-28T02:14:43.787Z,17.90
2022-08-28T02:17:12.238Z,17.70
2022-08-28T02:19:40.221Z,17.70
2022-08-28T02:22:09.427Z,17.50
2022-08-28T02:24:37.525Z,17.50
2022-08-28T02:27:06.261Z,17.70
2022-08-28T02:29:34.255Z,17.70
2022-08-28T02:32:05.951Z,17.70
2022-08-28T02:34:34.465Z,17.70
2022-08-28T02:37:02.505Z,17.70
2022-08-28T02:39:30.507Z,17.60
2022-08-28T02:41:58.755Z,17.60
2022-08-28T02:44:26.569Z,17.60
2022-08-28T02:46:54.685Z,17.60
2022-08-28T02:49:24.241Z,17.60
2022-08-28T02:51:52.283Z,17.50
2022-08-28T02:54:21.754Z,17.60
2022-08-28T02:56:49.844Z,17.70
2022-08-28T02:59:17.940Z,17.80
2022-08-28T03:01:45.893Z,17.70
2022-08-28T03:04:13.690Z,17.90
2022-08-28T03:06:42.815Z,17.90
2022-08-28T03:09:10.647Z,17.80
2022-08-28T03:11:38.862Z,17.70
2022-08-28T03:14:06.965Z,18.00
2022-08-28T03:16:35.137Z,18.10
2022-08-28T03:19:03.420Z,18.10
2022-08-28T03:21:31.215Z,17.80
2022-08-28T03:24:00.422Z,17.70
2022-08-28T03:26:28.601Z,17.70
2022-08-28T03:28:57.630Z,17.70
2022-08-28T03:31:29.175Z,17.90
2022-08-28T03:33:57.499Z,17.80
2022-08-28T03:36:26.681Z,17.70
2022-08-28T03:38:55.335Z,17.60
2022-08-28T03:41:29.146Z,17.70
2022-08-28T03:43:57.518Z,17.50
2022-08-28T03:46:25.825Z,17.50
2022-08-28T03:48:53.909Z,17.50
2022-08-28T03:51:29.276Z,17.50
2022-08-28T03:53:57.866Z,17.40
2022-08-28T03:56:28.309Z,17.40
2022-08-28T03:58:57.407Z,17.30
2022-08-28T04:01:25.423Z,17.30
2022-08-28T04:03:53.368Z,17.30
2022-08-28T04:06:21.224Z,17.60
2022-08-28T04:08:49.100Z,17.60
2022-08-28T04:11:17.429Z,17.60
2022-08-28T04:13:46.821Z,17.30
2022-08-28T04:16:19.150Z,17.20
2022-08-28T04:18:48.076Z,17.20
2022-08-28T04:21:16.933Z,17.20
2022-08-28T04:23:45.312Z,17.30
2022-08-28T04:26:15.034Z,17.30
2022-08-28T04:28:43.153Z,17.20
2022-08-28T04:31:12.805Z,17.10
2022-08-28T04:33:40.936Z,17.10
2022-08-28T04:36:11.156Z,17.10
2022-08-28T04:38:43.678Z,17.10
2022-08-28T04:41:13.394Z,17.30
2022-08-28T04:43:41.563Z,17.20
2022-08-28T04:46:12.874Z,17.20
2022-08-28T04:48:41.180Z,17.20
2022-08-28T04:51:10.609Z,17.20
2022-08-28T04:53:38.871Z,17.50
2022-08-28T04:56:08.281Z,17.50
2022-08-28T04:58:36.371Z,17.40
2022-08-28T05:01:06.766Z,17.30
2022-08-28T05:03:36.559Z,17.20
2022-08-28T05:06:04.742Z,17.20
2022-08-28T05:08:33.023Z,17.20
2022-08-28T05:11:10.937Z,17.30
2022-08-28T05:13:38.986Z,17.40
2022-08-28T05:16:07.446Z,17.30
2022-08-28T05:18:37.594Z,17.30
2022-08-28T05:21:06.011Z,17.30
2022-08-28T05:23:37.278Z,17.40
2022-08-28T05:26:05.496Z,17.40
2022-08-28T05:28:33.786Z,17.30
2022-08-28T05:31:09.938Z,17.20
2022-08-28T05:33:39.499Z,17.20
2022-08-28T05:36:08.454Z,17.20
2022-08-28T05:38:36.629Z,17.40
2022-08-28T05:41:04.914Z,17.30
2022-08-28T05:43:33.068Z,17.20
2022-08-28T05:46:01.903Z,17.30
2022-08-28T05:48:32.938Z,17.30
2022-08-28T05:51:07.434Z,17.30
2022-08-28T05:53:35.730Z,17.40
2022-08-28T05:56:05.014Z,17.50
2022-08-28T05:58:34.733Z,17.20
2022-08-28T06:01:11.176Z,17.30
2022-08-28T06:03:39.617Z,17.20
2022-08-28T06:06:09.581Z,17.30
2022-08-28T06:08:37.491Z,17.30
2022-08-28T06:11:05.737Z,17.30
2022-08-28T06:13:36.013Z,17.40
2022-08-28T06:16:05.720Z,17.30
2022-08-28T06:18:36.152Z,17.40
2022-08-28T06:21:04.241Z,17.40
2022-08-28T06:23:33.861Z,17.50
2022-08-28T06:26:01.809Z,17.40
2022-08-28T06:28:29.708Z,17.50
2022-08-28T06:31:18.463Z,17.70
2022-08-28T06:33:46.572Z,17.70
2022-08-28T06:36:14.655Z,17.60
2022-08-28T06:38:46.750Z,17.60
2022-08-28T06:41:15.636Z,17.70
2022-08-28T06:43:43.918Z,17.60
2022-08-28T06:46:11.972Z,17.50
2022-08-28T06:48:40.109Z,17.60
2022-08-28T06:51:09.482Z,17.50
2022-08-28T06:53:38.168Z,17.60
2022-08-28T06:56:09.005Z,17.70
2022-08-28T06:58:37.818Z,17.70
2022-08-28T07:01:07.236Z,17.80
2022-08-28T07:03:35.463Z,17.90
2022-08-28T07:06:11.087Z,17.90
2022-08-28T07:08:39.674Z,17.80
2022-08-28T07:11:13.992Z,17.90
2022-08-28T07:13:42.272Z,18.00
2022-08-28T07:16:10.585Z,18.00
2022-08-28T07:18:38.833Z,18.10
2022-08-28T07:21:11.646Z,18.20
2022-08-28T07:23:40.513Z,18.20
2022-08-28T07:26:10.294Z,17.90
2022-08-28T07:28:39.680Z,18.10
2022-08-28T07:31:09.820Z,18.30
2022-08-28T07:33:40.935Z,18.20
2022-08-28T07:36:15.608Z,18.10
2022-08-28T07:38:50.315Z,18.00
2022-08-28T07:41:20.057Z,18.20
2022-08-28T07:44:06.572Z,18.20
2022-08-28T07:46:34.857Z,18.30
2022-08-28T07:49:02.720Z,18.40
2022-08-28T07:51:30.750Z,18.20
2022-08-28T07:53:58.642Z,18.30
2022-08-28T07:56:27.458Z,18.40
2022-08-28T07:58:57.745Z,18.30
2022-08-28T08:01:25.743Z,18.30
2022-08-28T08:03:53.688Z,18.40
2022-08-28T08:06:28.751Z,18.40
2022-08-28T08:09:01.770Z,18.30
2022-08-28T08:11:32.549Z,18.40
2022-08-28T08:14:05.357Z,18.40
2022-08-28T08:16:34.736Z,18.50
2022-08-28T08:19:03.906Z,18.60
2022-08-28T08:21:32.091Z,18.60
2022-08-28T08:24:00.191Z,18.60
2022-08-28T08:26:29.571Z,18.70
2022-08-28T08:28:57.567Z,18.60
2022-08-28T08:31:28.412Z,18.50
2022-08-28T08:33:58.862Z,18.40
2022-08-28T08:36:27.513Z,18.40
2022-08-28T08:38:59.286Z,18.40
2022-08-28T08:41:30.303Z,18.30
2022-08-28T08:44:03.703Z,18.50
2022-08-28T08:46:41.585Z,18.60
2022-08-28T08:49:14.837Z,18.50
2022-08-28T08:51:47.920Z,18.50
2022-08-28T08:54:17.129Z,18.50
2022-08-28T08:56:45.037Z,18.50
2022-08-28T08:59:18.018Z,18.70
2022-08-28T09:01:53.151Z,18.70
2022-08-28T09:04:26.870Z,18.70
2022-08-28T09:07:00.090Z,18.70
2022-08-28T09:09:30.681Z,18.90
2022-08-28T09:12:00.117Z,19.10
2022-08-28T09:14:34.834Z,19.10
2022-08-28T09:17:04.107Z,19.10
2022-08-28T09:19:32.785Z,19.10
2022-08-28T09:22:01.362Z,19.00
2022-08-28T09:24:30.419Z,19.10
2022-08-28T09:26:59.613Z,19.00
2022-08-28T09:29:30.363Z,18.90
2022-08-28T09:31:58.725Z,19.00
2022-08-28T09:34:33.386Z,19.00
2022-08-28T09:37:03.528Z,19.00
2022-08-28T09:39:31.975Z,19.20
2022-08-28T09:42:21.411Z,19.30
2022-08-28T09:44:55.062Z,19.30
2022-08-28T09:47:46.147Z,19.30
2022-08-28T09:50:31.381Z,19.50
2022-08-28T09:53:00.938Z,19.50
2022-08-28T09:55:34.366Z,19.50
2022-08-28T09:58:02.399Z,19.40
2022-08-28T10:00:30.939Z,19.40
2022-08-28T10:03:05.646Z,19.30
2022-08-28T10:05:39.688Z,19.40
2022-08-28T10:08:16.867Z,19.40
2022-08-28T10:10:48.295Z,19.40
2022-08-28T10:13:17.339Z,19.50
2022-08-28T10:15:55.221Z,19.50
2022-08-28T10:18:34.137Z,19.30
2022-08-28T10:21:07.927Z,19.20
2022-08-28T10:23:41.238Z,19.00
2022-08-28T10:26:21.353Z,19.20
2022-08-28T10:28:56.195Z,18.90
2022-08-28T10:31:26.353Z,19.00
2022-08-28T10:34:07.113Z,18.90
2022-08-28T10:36:36.733Z,18.80
2022-08-28T10:39:18.233Z,18.70
2022-08-28T10:41:48.673Z,18.60
2022-08-28T10:44:19.344Z,18.70
2022-08-28T10:46:49.588Z,18.60
2022-08-28T10:49:20.185Z,18.70
2022-08-28T10:51:51.298Z,18.80
2022-08-28T10:54:24.423Z,18.80
2022-08-28T10:56:56.477Z,18.60
2022-08-28T10:59:25.111Z,18.50
2022-08-28T11:01:53.106Z,18.50
2022-08-28T11:04:25.361Z,18.40
2022-08-28T11:06:56.024Z,18.50
2022-08-28T11:09:30.694Z,18.60
2022-08-28T11:12:02.006Z,18.60
2022-08-28T11:14:32.283Z,18.70
2022-08-28T11:17:02.552Z,18.70
2022-08-28T11:20:03.770Z,18.60
2022-08-28T11:22:36.299Z,18.70
2022-08-28T11:25:09.709Z,18.60
2022-08-28T11:27:39.229Z,18.70
2022-08-28T11:30:29.784Z,18.50
2022-08-28T11:33:06.513Z,18.50
2022-08-28T11:35:49.423Z,18.40
2022-08-28T11:38:53.687Z,18.70
2022-08-28T11:41:25.792Z,18.60
2022-08-28T11:44:09.037Z,18.70
2022-08-28T11:46:38.409Z,18.90
2022-08-28T11:49:07.373Z,18.80
2022-08-28T11:51:54.112Z,18.80
2022-08-28T11:54:41.199Z,18.70
2022-08-28T11:57:13.861Z,18.70
2022-08-28T12:00:02.977Z,18.90
2022-08-28T12:02:49.596Z,19.00
2022-08-28T12:05:42.702Z,18.90
2022-08-28T12:08:13.789Z,18.90
2022-08-28T12:10:56.662Z,18.80
2022-08-28T12:13:51.010Z,18.70
2022-08-28T12:16:19.071Z,18.90
2022-08-28T12:19:01.213Z,18.90
2022-08-28T12:21:29.904Z,19.00
2022-08-28T12:24:05.277Z,18.90
2022-08-28T12:26:38.763Z,18.90
2022-08-28T12:29:09.124Z,18.80
2022-08-28T12:32:15.258Z,19.00
2022-08-28T12:34:49.862Z,19.00
2022-08-28T12:37:39.564Z,19.20
2022-08-28T12:40:22.192Z,19.20
2022-08-28T12:42:55.272Z,19.30
2022-08-28T12:45:27.155Z,19.40
2022-08-28T12:47:56.008Z,19.40
2022-08-28T12:50:27.564Z,19.30
2022-08-28T12:52:56.453Z,19.20
2022-08-28T12:55:24.694Z,19.20
2022-08-28T12:57:53.013Z,19.20
2022-08-28T13:00:23.031Z,19.20
2022-08-28T13:02:53.949Z,19.30
2022-08-28T13:05:27.590Z,19.40
2022-08-28T13:07:55.506Z,19.20
2022-08-28T13:10:25.512Z,19.20
2022-08-28T13:12:56.115Z,19.20
2022-08-28T13:15:55.447Z,19.30
2022-08-28T13:18:45.251Z,19.30
2022-08-28T13:21:33.902Z,19.50
2022-08-28T13:24:22.334Z,19.50
2022-08-28T13:26:50.740Z,19.50
2022-08-28T13:29:20.573Z,19.60
2022-08-28T13:31:56.799Z,19.70
2022-08-28T13:34:26.721Z,19.70
2022-08-28T13:36:55.890Z,19.70
2022-08-28T13:39:23.980Z,19.70
2022-08-28T13:41:53.373Z,19.60
2022-08-28T13:44:28.194Z,19.50
2022-08-28T13:46:56.262Z,19.50
2022-08-28T13:49:27.673Z,19.70
2022-08-28T13:51:55.803Z,19.80
2022-08-28T13:54:24.666Z,19.80
2022-08-28T13:56:53.925Z,19.70
2022-08-28T13:59:23.392Z,19.60
2022-08-28T14:02:09.521Z,19.80
2022-08-28T14:04:38.803Z,19.80
2022-08-28T14:07:07.926Z,19.80
2022-08-28T14:09:35.871Z,19.80
2022-08-28T14:12:04.543Z,19.70
2022-08-28T14:14:33.037Z,19.80
2022-08-28T14:17:01.758Z,19.70
2022-08-28T14:19:29.714Z,19.70
2022-08-28T14:21:59.223Z,19.70
2022-08-28T14:24:27.294Z,19.60
2022-08-28T14:26:55.358Z,19.50
2022-08-28T14:29:23.369Z,19.60
2022-08-28T14:31:51.258Z,19.80
2022-08-28T14:34:20.225Z,20.10
2022-08-28T14:36:50.849Z,19.90
2022-08-28T14:39:20.103Z,20.10
2022-08-28T14:41:49.397Z,20.20
2022-08-28T14:44:17.263Z,20.20
2022-08-28T14:53:33.794Z,19.90
2022-08-28T14:56:03.549Z,20.20
2022-08-28T14:58:34.017Z,20.50
2022-08-28T15:01:02.206Z,20.50
2022-08-28T15:03:30.021Z,20.40
2022-08-28T15:06:01.216Z,19.90
2022-08-28T15:08:41.614Z,20.30
2022-08-28T15:11:14.288Z,20.80
2022-08-28T15:13:46.326Z,21.00
2022-08-28T15:16:15.647Z,21.10
2022-08-28T15:18:44.134Z,21.00
2022-08-28T15:21:16.019Z,20.90
2022-08-28T15:23:44.172Z,20.90
2022-08-28T15:26:15.474Z,21.20
2022-08-28T15:28:43.557Z,21.40
2022-08-28T15:31:11.406Z,21.40
2022-08-28T15:33:43.299Z,21.40
2022-08-28T15:36:13.312Z,21.50
2022-08-28T15:38:58.857Z,21.50
2022-08-28T15:41:29.333Z,21.50
2022-08-28T15:44:00.031Z,21.50
2022-08-28T15:46:28.332Z,21.30
2022-08-28T15:48:56.254Z,21.30
2022-08-28T15:51:25.997Z,21.20
2022-08-28T15:53:54.148Z,21.30
2022-08-28T15:56:22.033Z,21.30
2022-08-28T15:58:51.896Z,21.10
2022-08-28T16:01:19.836Z,21.00
2022-08-28T16:07:37.982Z,21.00
2022-08-28T16:10:07.034Z,20.90
2022-08-28T16:12:34.875Z,20.70
2022-08-28T16:15:04.097Z,20.90
2022-08-28T16:17:31.903Z,20.90
2022-08-28T16:19:59.708Z,20.80
2022-08-28T16:22:27.584Z,20.60
2022-08-28T16:24:55.399Z,20.60
2022-08-28T16:27:23.836Z,20.70
2022-08-28T16:29:52.915Z,20.70
2022-08-28T16:32:22.930Z,20.70
2022-08-28T16:34:51.055Z,20.60
2022-08-28T16:37:20.397Z,20.50
2022-08-28T16:39:49.549Z,20.60
2022-08-28T16:42:17.450Z,20.50
2022-08-28T16:44:45.291Z,20.60
2022-08-28T16:47:13.144Z,20.60
2022-08-28T16:49:42.419Z,20.60
2022-08-28T16:52:10.238Z,20.60
2022-08-28T16:54:38.073Z,20.50
2022-08-28T16:57:15.340Z,20.50
2022-08-28T16:59:44.035Z,20.30
2022-08-28T17:02:13.373Z,20.40
2022-08-28T17:04:42.754Z,20.40
2022-08-28T17:07:10.621Z,20.20
2022-08-28T17:09:38.458Z,20.30
2022-08-28T17:12:06.803Z,20.20
2022-08-28T17:14:34.660Z,20.30
2022-08-28T17:17:02.491Z,20.20
2022-08-28T17:19:30.312Z,20.20
2022-08-28T17:22:16.720Z,20.20
2022-08-28T17:24:44.535Z,20.10
2022-08-28T17:27:16.753Z,20.10
2022-08-28T17:29:50.516Z,20.00
2022-08-28T17:32:18.327Z,20.00
2022-08-28T17:34:46.151Z,20.00
2022-08-28T17:37:15.765Z,19.90
2022-08-28T17:39:43.924Z,19.90
2022-08-28T17:42:11.744Z,19.80
2022-08-28T17:44:39.579Z,19.70
2022-08-28T17:47:07.644Z,19.70
2022-08-28T17:49:35.462Z,19.80
2022-08-28T17:52:03.580Z,19.70
2022-08-28T17:54:33.003Z,19.60
2022-08-28T17:57:01.191Z,19.50
2022-08-28T17:59:29.021Z,19.50
2022-08-28T18:01:56.876Z,19.30
2022-08-28T18:04:24.935Z,19.20
2022-08-28T18:06:54.305Z,19.20
2022-08-28T18:09:22.888Z,19.30
2022-08-28T18:11:52.232Z,19.30
2022-08-28T18:14:20.063Z,19.10
2022-08-28T18:16:48.035Z,19.00
2022-08-28T18:19:16.349Z,19.00
2022-08-28T18:21:44.125Z,19.00
2022-08-28T18:24:12.935Z,18.90
2022-08-28T18:26:40.893Z,18.90
2022-08-28T18:29:10.367Z,18.90
2022-08-28T18:31:38.267Z,18.90
2022-08-28T18:34:06.261Z,18.90
2022-08-28T18:36:34.140Z,18.80
2022-08-28T18:39:01.943Z,18.80
2022-08-28T18:41:37.674Z,18.80
2022-08-28T18:44:14.255Z,18.80
2022-08-28T18:46:42.419Z,18.70
2022-08-28T18:49:10.468Z,18.70
2022-08-28T18:51:38.315Z,18.70
2022-08-28T18:54:06.212Z,18.60
2022-08-28T18:56:36.132Z,18.50
2022-08-28T18:59:06.319Z,18.50
2022-08-28T19:01:35.598Z,18.50
2022-08-28T19:04:03.812Z,18.50
2022-08-28T19:06:31.925Z,18.50
2022-08-28T19:08:59.840Z,18.60
2022-08-28T19:11:31.257Z,18.60
2022-08-28T19:13:59.585Z,18.50
2022-08-28T19:16:32.546Z,18.50
2022-08-28T19:19:02.181Z,18.40
2022-08-28T19:21:30.217Z,18.40
2022-08-28T19:23:58.036Z,18.30
2022-08-28T19:26:25.972Z,18.30
2022-08-28T19:28:54.075Z,18.30
2022-08-28T19:31:22.589Z,18.20
2022-08-28T19:33:50.531Z,18.10
2022-08-28T19:36:19.715Z,18.10
2022-08-28T19:38:47.577Z,18.10
2022-08-28T19:41:15.401Z,18.10
2022-08-28T19:43:44.674Z,17.90
2022-08-28T19:46:20.070Z,17.90
2022-08-28T19:48:48.664Z,17.80
2022-08-28T19:51:17.632Z,17.70
2022-08-28T19:53:57.240Z,17.70
2022-08-28T19:56:27.777Z,17.70
2022-08-28T19:58:56.508Z,17.70
2022-08-28T20:01:24.511Z,17.60
2022-08-28T20:03:52.447Z,17.60
2022-08-28T20:06:20.266Z,17.60
2022-08-28T20:08:48.089Z,17.60
2022-08-28T20:11:19.627Z,17.60
2022-08-28T20:13:47.542Z,17.60
2022-08-28T20:16:15.426Z,17.60
2022-08-28T20:18:43.615Z,17.40
2022-08-28T20:21:11.895Z,17.40
2022-08-28T20:23:40.281Z,17.40
2022-08-28T20:26:09.383Z,17.40
2022-08-28T20:28:38.764Z,17.30
2022-08-28T20:31:09.053Z,17.20
2022-08-28T20:33:37.059Z,17.10
2022-08-28T20:36:06.059Z,17.10
2022-08-28T20:38:35.667Z,17.20
2022-08-28T20:41:05.348Z,17.20
2022-08-28T20:43:33.276Z,17.10
2022-08-28T20:46:02.475Z,17.00
2022-08-28T20:48:33.752Z,17.10
2022-08-28T20:51:01.588Z,16.90
2022-08-28T20:53:37.705Z,17.00
2022-08-28T20:56:07.497Z,17.00
2022-08-28T20:58:35.591Z,16.90
2022-08-28T21:01:05.606Z,17.00
2022-08-28T21:03:33.564Z,16.90
2022-08-28T21:06:01.472Z,16.70
2022-08-28T21:08:29.297Z,16.70
2022-08-28T21:10:57.105Z,16.70
2022-08-28T21:21:00.485Z,16.70
2022-08-28T21:23:53.799Z,16.80
2022-08-28T21:26:21.561Z,16.80
2022-08-28T21:36:24.389Z,16.40
2022-08-28T21:38:52.825Z,16.50
2022-08-28T21:52:44.503Z,16.30
2022-08-28T21:55:13.546Z,16.40
2022-08-28T21:57:41.497Z,16.30
2022-08-28T22:00:11.149Z,16.10
2022-08-28T22:02:39.157Z,16.00
2022-08-28T22:05:07.317Z,16.00
2022-08-28T22:07:35.469Z,16.00
2022-08-28T22:10:05.506Z,16.40
2022-08-28T22:12:33.327Z,16.20
2022-08-28T22:15:01.246Z,16.10
2022-08-28T22:17:29.594Z,16.10
2022-08-28T22:19:57.386Z,16.30
2022-08-28T22:22:42.557Z,16.50
2022-08-28T22:25:11.692Z,16.40
2022-08-28T22:27:39.618Z,16.10
2022-08-28T22:30:08.225Z,16.00
2022-08-28T22:32:36.077Z,16.00
2022-08-28T22:35:03.923Z,16.00
2022-08-28T22:37:32.192Z,15.90
2022-08-28T22:40:00.313Z,15.70
2022-08-28T22:42:29.923Z,15.70
2022-08-28T22:44:57.818Z,15.60
2022-08-28T22:47:26.261Z,15.60
2022-08-28T22:49:56.096Z,15.50
2022-08-28T22:52:23.914Z,15.50
2022-08-28T22:54:53.278Z,15.60
2022-08-28T22:57:21.151Z,15.60
2022-08-28T22:59:50.373Z,15.60
2022-08-28T23:02:18.356Z,15.90
2022-08-28T23:04:46.260Z,15.90
2022-08-28T23:07:19.983Z,15.60
2022-08-28T23:09:47.803Z,15.40
2022-08-28T23:12:15.606Z,15.30
2022-08-28T23:14:47.785Z,15.30
2022-08-28T23:17:17.931Z,15.40
2022-08-28T23:19:46.706Z,15.40
2022-08-28T23:22:14.661Z,15.20
2022-08-28T23:24:42.481Z,15.10
2022-08-28T23:27:34.844Z,15.20
2022-08-28T23:29:58.223Z,15.40
2022-08-28T23:32:27.450Z,15.40
2022-08-28T23:34:55.261Z,15.30
2022-08-28T23:37:23.421Z,15.20
2022-08-28T23:39:51.276Z,15.10
2022-08-28T23:42:22.317Z,15.10
2022-08-28T23:44:50.125Z,15.10
2022-08-28T23:47:17.931Z,15.00
2022-08-28T23:49:47.398Z,14.90
2022-08-28T23:52:15.273Z,14.90
2022-08-28T23:54:43.128Z,15.00
2022-08-28T23:57:12.532Z,15.00
2022-08-28T23:59:40.352Z,15.00
